sensor_id;sensor_type;location;lat;lon;timestamp;temperature;humidity
65876;HTU21D;52657;51.128;5.938;2023-03-23T00:02:25;15.70;63.92
65876;HTU21D;52657;51.128;5.938;2023-03-23T00:04:51;15.68;63.98
65876;HTU21D;52657;51.128;5.938;2023-03-23T00:07:17;15.67;64.07
65876;HTU21D;52657;51.128;5.938;2023-03-23T00:09:50;15.68;64.13
65876;HTU21D;52657;51.128;5.938;2023-03-23T00:12:27;15.69;64.14
65876;HTU21D;52657;51.128;5.938;2023-03-23T00:15:08;15.70;64.01
65876;HTU21D;52657;51.128;5.938;2023-03-23T00:17:34;15.69;64.11
65876;HTU21D;52657;51.128;5.938;2023-03-23T00:20:01;15.69;64.14
65876;HTU21D;52657;51.128;5.938;2023-03-23T00:22:29;15.65;64.35
65876;HTU21D;52657;51.128;5.938;2023-03-23T00:24:55;15.68;64.26
65876;HTU21D;52657;51.128;5.938;2023-03-23T00:27:22;15.69;64.26
65876;HTU21D;52657;51.128;5.938;2023-03-23T00:29:49;15.68;64.31
65876;HTU21D;52657;51.128;5.938;2023-03-23T00:32:20;15.67;64.37
65876;HTU21D;52657;51.128;5.938;2023-03-23T00:34:46;15.59;64.61
65876;HTU21D;52657;51.128;5.938;2023-03-23T00:37:14;15.61;64.63
65876;HTU21D;52657;51.128;5.938;2023-03-23T00:39:42;15.62;64.59
65876;HTU21D;52657;51.128;5.938;2023-03-23T00:42:12;15.62;64.69
65876;HTU21D;52657;51.128;5.938;2023-03-23T00:44:39;15.65;64.65
65876;HTU21D;52657;51.128;5.938;2023-03-23T00:47:05;15.58;64.84
65876;HTU21D;52657;51.128;5.938;2023-03-23T00:49:33;15.65;64.69
65876;HTU21D;52657;51.128;5.938;2023-03-23T00:52:01;15.66;64.72
65876;HTU21D;52657;51.128;5.938;2023-03-23T00:54:27;15.68;64.69
65876;HTU21D;52657;51.128;5.938;2023-03-23T00:56:54;15.68;64.67
65876;HTU21D;52657;51.128;5.938;2023-03-23T00:59:22;15.69;64.67
65876;HTU21D;52657;51.128;5.938;2023-03-23T01:01:50;15.71;64.65
65876;HTU21D;52657;51.128;5.938;2023-03-23T01:04:15;15.69;64.82
65876;HTU21D;52657;51.128;5.938;2023-03-23T01:06:43;15.68;64.85
65876;HTU21D;52657;51.128;5.938;2023-03-23T01:09:13;15.66;64.98
65876;HTU21D;52657;51.128;5.938;2023-03-23T01:11:41;15.66;65.04
65876;HTU21D;52657;51.128;5.938;2023-03-23T01:14:08;15.63;65.10
65876;HTU21D;52657;51.128;5.938;2023-03-23T01:16:33;15.62;65.28
65876;HTU21D;52657;51.128;5.938;2023-03-23T01:18:59;15.61;65.33
65876;HTU21D;52657;51.128;5.938;2023-03-23T01:21:28;15.65;65.25
65876;HTU21D;52657;51.128;5.938;2023-03-23T01:23:54;15.60;65.41
65876;HTU21D;52657;51.128;5.938;2023-03-23T01:26:23;15.62;65.40
65876;HTU21D;52657;51.128;5.938;2023-03-23T01:28:50;15.65;65.46
65876;HTU21D;52657;51.128;5.938;2023-03-23T01:31:19;15.65;65.49
65876;HTU21D;52657;51.128;5.938;2023-03-23T01:33:45;15.60;65.66
65876;HTU21D;52657;51.128;5.938;2023-03-23T01:36:16;15.60;65.89
65876;HTU21D;52657;51.128;5.938;2023-03-23T01:38:45;15.61;65.85
65876;HTU21D;52657;51.128;5.938;2023-03-23T01:41:12;15.62;65.90
65876;HTU21D;52657;51.128;5.938;2023-03-23T01:44:03;15.65;65.85
65876;HTU21D;52657;51.128;5.938;2023-03-23T01:46:43;15.63;65.91
65876;HTU21D;52657;51.128;5.938;2023-03-23T01:49:15;15.61;65.95
65876;HTU21D;52657;51.128;5.938;2023-03-23T01:51:48;15.56;66.18
65876;HTU21D;52657;51.128;5.938;2023-03-23T01:54:17;15.60;66.11
65876;HTU21D;52657;51.128;5.938;2023-03-23T01:56:58;15.60;66.11
65876;HTU21D;52657;51.128;5.938;2023-03-23T01:59:27;15.61;66.07
65876;HTU21D;52657;51.128;5.938;2023-03-23T02:02:15;15.55;66.33
65876;HTU21D;52657;51.128;5.938;2023-03-23T02:04:42;15.52;66.40
65876;HTU21D;52657;51.128;5.938;2023-03-23T02:07:09;15.52;66.44
65876;HTU21D;52657;51.128;5.938;2023-03-23T02:09:36;15.53;66.43
65876;HTU21D;52657;51.128;5.938;2023-03-23T02:12:02;15.51;66.55
65876;HTU21D;52657;51.128;5.938;2023-03-23T02:14:29;15.46;66.68
65876;HTU21D;52657;51.128;5.938;2023-03-23T02:20:06;15.46;66.81
65876;HTU21D;52657;51.128;5.938;2023-03-23T02:25:29;15.40;66.94
65876;HTU21D;52657;51.128;5.938;2023-03-23T02:34:18;15.33;67.17
65876;HTU21D;52657;51.128;5.938;2023-03-23T02:36:58;15.33;67.20
65876;HTU21D;52657;51.128;5.938;2023-03-23T02:39:30;15.31;67.34
65876;HTU21D;52657;51.128;5.938;2023-03-23T02:42:05;15.29;67.54
65876;HTU21D;52657;51.128;5.938;2023-03-23T02:44:36;15.32;67.48
65876;HTU21D;52657;51.128;5.938;2023-03-23T02:47:17;15.32;67.46
65876;HTU21D;52657;51.128;5.938;2023-03-23T02:49:48;15.34;67.38
65876;HTU21D;52657;51.128;5.938;2023-03-23T02:52:21;15.39;67.31
65876;HTU21D;52657;51.128;5.938;2023-03-23T02:54:52;15.41;67.25
65876;HTU21D;52657;51.128;5.938;2023-03-23T02:57:20;15.42;67.17
65876;HTU21D;52657;51.128;5.938;2023-03-23T02:59:47;15.41;67.25
65876;HTU21D;52657;51.128;5.938;2023-03-23T03:02:17;15.39;67.30
65876;HTU21D;52657;51.128;5.938;2023-03-23T03:04:59;15.37;67.34
65876;HTU21D;52657;51.128;5.938;2023-03-23T03:08:07;15.38;67.28
65876;HTU21D;52657;51.128;5.938;2023-03-23T03:11:00;15.32;67.46
65876;HTU21D;52657;51.128;5.938;2023-03-23T03:13:49;15.36;67.31
65876;HTU21D;52657;51.128;5.938;2023-03-23T03:16:30;15.32;67.42
65876;HTU21D;52657;51.128;5.938;2023-03-23T03:18:59;15.28;67.55
65876;HTU21D;52657;51.128;5.938;2023-03-23T03:21:31;15.29;67.49
65876;HTU21D;52657;51.128;5.938;2023-03-23T03:24:02;15.33;67.24
65876;HTU21D;52657;51.128;5.938;2023-03-23T03:26:31;15.38;67.09
65876;HTU21D;52657;51.128;5.938;2023-03-23T03:29:25;15.32;67.25
65876;HTU21D;52657;51.128;5.938;2023-03-23T03:31:56;15.37;67.08
65876;HTU21D;52657;51.128;5.938;2023-03-23T03:34:26;15.40;66.95
65876;HTU21D;52657;51.128;5.938;2023-03-23T03:36:54;15.40;66.94
65876;HTU21D;52657;51.128;5.938;2023-03-23T03:39:26;15.39;66.95
65876;HTU21D;52657;51.128;5.938;2023-03-23T03:41:53;15.39;66.98
65876;HTU21D;52657;51.128;5.938;2023-03-23T03:44:20;15.34;67.08
65876;HTU21D;52657;51.128;5.938;2023-03-23T03:46:46;15.33;67.15
65876;HTU21D;52657;51.128;5.938;2023-03-23T03:49:11;15.31;67.20
65876;HTU21D;52657;51.128;5.938;2023-03-23T03:51:40;15.28;67.31
65876;HTU21D;52657;51.128;5.938;2023-03-23T03:54:11;15.29;67.23
65876;HTU21D;52657;51.128;5.938;2023-03-23T03:56:37;15.30;67.18
65876;HTU21D;52657;51.128;5.938;2023-03-23T03:59:25;15.32;67.07
65876;HTU21D;52657;51.128;5.938;2023-03-23T04:02:12;15.28;67.19
65876;HTU21D;52657;51.128;5.938;2023-03-23T04:04:42;15.30;67.14
65876;HTU21D;52657;51.128;5.938;2023-03-23T04:07:09;15.32;66.98
65876;HTU21D;52657;51.128;5.938;2023-03-23T04:09:43;15.32;66.92
65876;HTU21D;52657;51.128;5.938;2023-03-23T04:12:13;15.33;66.97
65876;HTU21D;52657;51.128;5.938;2023-03-23T04:14:59;15.30;67.00
65876;HTU21D;52657;51.128;5.938;2023-03-23T04:17:34;15.32;66.98
65876;HTU21D;52657;51.128;5.938;2023-03-23T04:20:01;15.31;66.92
65876;HTU21D;52657;51.128;5.938;2023-03-23T04:22:32;15.28;66.91
65876;HTU21D;52657;51.128;5.938;2023-03-23T04:25:00;15.27;66.92
65876;HTU21D;52657;51.128;5.938;2023-03-23T04:27:29;15.26;66.86
65876;HTU21D;52657;51.128;5.938;2023-03-23T04:29:58;15.28;66.74
65876;HTU21D;52657;51.128;5.938;2023-03-23T04:32:42;15.31;66.58
65876;HTU21D;52657;51.128;5.938;2023-03-23T04:35:13;15.31;66.52
65876;HTU21D;52657;51.128;5.938;2023-03-23T04:37:48;15.26;66.51
65876;HTU21D;52657;51.128;5.938;2023-03-23T04:40:18;15.27;66.58
65876;HTU21D;52657;51.128;5.938;2023-03-23T04:42:53;15.25;66.46
65876;HTU21D;52657;51.128;5.938;2023-03-23T04:45:41;15.18;66.56
65876;HTU21D;52657;51.128;5.938;2023-03-23T04:48:12;15.23;66.38
65876;HTU21D;52657;51.128;5.938;2023-03-23T04:50:49;15.25;66.20
65876;HTU21D;52657;51.128;5.938;2023-03-23T04:53:22;15.25;66.03
65876;HTU21D;52657;51.128;5.938;2023-03-23T04:55:48;15.26;65.95
65876;HTU21D;52657;51.128;5.938;2023-03-23T04:58:16;15.28;65.83
65876;HTU21D;52657;51.128;5.938;2023-03-23T05:00:55;15.28;65.78
65876;HTU21D;52657;51.128;5.938;2023-03-23T05:03:22;15.29;65.63
65876;HTU21D;52657;51.128;5.938;2023-03-23T05:05:51;15.29;65.47
65876;HTU21D;52657;51.128;5.938;2023-03-23T05:08:20;15.28;65.31
65876;HTU21D;52657;51.128;5.938;2023-03-23T05:10:53;15.27;65.31
65876;HTU21D;52657;51.128;5.938;2023-03-23T05:13:21;15.24;65.21
65876;HTU21D;52657;51.128;5.938;2023-03-23T05:15:50;15.26;64.99
65876;HTU21D;52657;51.128;5.938;2023-03-23T05:18:16;15.23;65.01
65876;HTU21D;52657;51.128;5.938;2023-03-23T05:20:42;15.26;64.82
65876;HTU21D;52657;51.128;5.938;2023-03-23T05:23:15;15.26;64.73
65876;HTU21D;52657;51.128;5.938;2023-03-23T05:25:41;15.26;64.71
65876;HTU21D;52657;51.128;5.938;2023-03-23T05:28:15;15.30;64.55
65876;HTU21D;52657;51.128;5.938;2023-03-23T05:30:40;15.26;64.47
65876;HTU21D;52657;51.128;5.938;2023-03-23T05:33:08;15.26;64.30
65876;HTU21D;52657;51.128;5.938;2023-03-23T05:35:48;15.26;64.09
65876;HTU21D;52657;51.128;5.938;2023-03-23T05:38:20;15.28;63.95
65876;HTU21D;52657;51.128;5.938;2023-03-23T05:40:47;15.23;63.92
65876;HTU21D;52657;51.128;5.938;2023-03-23T05:43:16;15.25;63.80
65876;HTU21D;52657;51.128;5.938;2023-03-23T05:45:52;15.25;63.60
65876;HTU21D;52657;51.128;5.938;2023-03-23T05:48:17;15.26;63.46
65876;HTU21D;52657;51.128;5.938;2023-03-23T05:50:43;15.28;63.30
65876;HTU21D;52657;51.128;5.938;2023-03-23T05:53:10;15.32;63.01
65876;HTU21D;52657;51.128;5.938;2023-03-23T05:55:38;15.32;62.89
65876;HTU21D;52657;51.128;5.938;2023-03-23T05:58:15;15.31;62.73
65876;HTU21D;52657;51.128;5.938;2023-03-23T06:00:43;15.36;62.57
65876;HTU21D;52657;51.128;5.938;2023-03-23T06:03:19;15.37;62.37
65876;HTU21D;52657;51.128;5.938;2023-03-23T06:05:56;15.38;62.35
65876;HTU21D;52657;51.128;5.938;2023-03-23T06:08:29;15.40;62.28
65876;HTU21D;52657;51.128;5.938;2023-03-23T06:10:56;15.37;62.31
65876;HTU21D;52657;51.128;5.938;2023-03-23T06:13:22;15.38;62.27
65876;HTU21D;52657;51.128;5.938;2023-03-23T06:15:49;15.39;62.25
65876;HTU21D;52657;51.128;5.938;2023-03-23T06:19:00;15.42;62.20
65876;HTU21D;52657;51.128;5.938;2023-03-23T06:21:42;15.42;62.16
65876;HTU21D;52657;51.128;5.938;2023-03-23T06:24:28;15.42;62.22
65876;HTU21D;52657;51.128;5.938;2023-03-23T06:26:56;15.41;62.37
65876;HTU21D;52657;51.128;5.938;2023-03-23T06:29:22;15.43;62.38
65876;HTU21D;52657;51.128;5.938;2023-03-23T06:31:57;15.46;62.44
65876;HTU21D;52657;51.128;5.938;2023-03-23T06:34:26;15.52;62.44
65876;HTU21D;52657;51.128;5.938;2023-03-23T06:37:10;15.58;62.31
65876;HTU21D;52657;51.128;5.938;2023-03-23T06:39:50;15.57;62.33
65876;HTU21D;52657;51.128;5.938;2023-03-23T06:42:24;15.55;62.53
65876;HTU21D;52657;51.128;5.938;2023-03-23T06:45:06;15.54;62.53
65876;HTU21D;52657;51.128;5.938;2023-03-23T06:47:34;15.53;62.57
65876;HTU21D;52657;51.128;5.938;2023-03-23T06:50:00;15.54;62.50
65876;HTU21D;52657;51.128;5.938;2023-03-23T06:52:27;15.53;62.73
65876;HTU21D;52657;51.128;5.938;2023-03-23T06:54:56;15.52;62.79
65876;HTU21D;52657;51.128;5.938;2023-03-23T06:57:22;15.53;62.80
65876;HTU21D;52657;51.128;5.938;2023-03-23T06:59:51;15.53;62.70
65876;HTU21D;52657;51.128;5.938;2023-03-23T07:02:17;15.56;62.61
65876;HTU21D;52657;51.128;5.938;2023-03-23T07:04:45;15.49;62.79
65876;HTU21D;52657;51.128;5.938;2023-03-23T07:07:20;15.48;62.76
65876;HTU21D;52657;51.128;5.938;2023-03-23T07:10:09;15.48;62.79
65876;HTU21D;52657;51.128;5.938;2023-03-23T07:12:36;15.56;62.63
65876;HTU21D;52657;51.128;5.938;2023-03-23T07:15:04;15.49;62.54
65876;HTU21D;52657;51.128;5.938;2023-03-23T07:17:30;15.54;62.57
65876;HTU21D;52657;51.128;5.938;2023-03-23T07:20:32;15.54;62.40
65876;HTU21D;52657;51.128;5.938;2023-03-23T07:22:58;15.54;62.43
65876;HTU21D;52657;51.128;5.938;2023-03-23T07:25:43;15.55;62.39
65876;HTU21D;52657;51.128;5.938;2023-03-23T07:28:16;15.54;62.27
65876;HTU21D;52657;51.128;5.938;2023-03-23T07:30:43;15.56;62.00
65876;HTU21D;52657;51.128;5.938;2023-03-23T07:33:10;15.56;62.14
65876;HTU21D;52657;51.128;5.938;2023-03-23T07:35:37;15.61;61.92
65876;HTU21D;52657;51.128;5.938;2023-03-23T07:38:06;15.65;61.78
65876;HTU21D;52657;51.128;5.938;2023-03-23T07:40:33;15.65;61.84
65876;HTU21D;52657;51.128;5.938;2023-03-23T07:43:04;15.68;61.85
65876;HTU21D;52657;51.128;5.938;2023-03-23T07:45:59;15.67;61.86
65876;HTU21D;52657;51.128;5.938;2023-03-23T07:48:34;15.76;61.73
65876;HTU21D;52657;51.128;5.938;2023-03-23T07:51:00;15.84;61.36
65876;HTU21D;52657;51.128;5.938;2023-03-23T07:53:28;15.88;60.99
65876;HTU21D;52657;51.128;5.938;2023-03-23T07:56:06;15.89;60.54
65876;HTU21D;52657;51.128;5.938;2023-03-23T07:58:47;15.89;60.83
65876;HTU21D;52657;51.128;5.938;2023-03-23T08:01:13;15.95;60.75
65876;HTU21D;52657;51.128;5.938;2023-03-23T08:03:40;16.03;60.57
65876;HTU21D;52657;51.128;5.938;2023-03-23T08:06:34;16.05;60.33
65876;HTU21D;52657;51.128;5.938;2023-03-23T08:09:23;16.07;60.18
65876;HTU21D;52657;51.128;5.938;2023-03-23T08:12:09;16.10;60.25
65876;HTU21D;52657;51.128;5.938;2023-03-23T08:14:54;16.13;60.06
65876;HTU21D;52657;51.128;5.938;2023-03-23T08:17:44;16.22;59.86
65876;HTU21D;52657;51.128;5.938;2023-03-23T08:20:27;16.33;59.57
65876;HTU21D;52657;51.128;5.938;2023-03-23T08:23:28;16.40;59.22
65876;HTU21D;52657;51.128;5.938;2023-03-23T08:26:32;16.45;59.04
65876;HTU21D;52657;51.128;5.938;2023-03-23T08:29:16;16.43;58.85
65876;HTU21D;52657;51.128;5.938;2023-03-23T08:32:02;16.48;58.83
65876;HTU21D;52657;51.128;5.938;2023-03-23T08:34:47;16.41;58.68
65876;HTU21D;52657;51.128;5.938;2023-03-23T08:37:31;16.40;58.73
65876;HTU21D;52657;51.128;5.938;2023-03-23T08:40:14;16.41;58.90
65876;HTU21D;52657;51.128;5.938;2023-03-23T08:43:00;16.50;58.83
65876;HTU21D;52657;51.128;5.938;2023-03-23T08:45:45;16.50;58.89
65876;HTU21D;52657;51.128;5.938;2023-03-23T08:48:29;16.48;58.90
65876;HTU21D;52657;51.128;5.938;2023-03-23T08:51:07;16.48;59.08
65876;HTU21D;52657;51.128;5.938;2023-03-23T08:53:57;16.49;59.30
65876;HTU21D;52657;51.128;5.938;2023-03-23T08:56:43;16.34;60.47
65876;HTU21D;52657;51.128;5.938;2023-03-23T08:59:23;16.13;62.14
65876;HTU21D;52657;51.128;5.938;2023-03-23T09:02:15;15.86;63.49
65876;HTU21D;52657;51.128;5.938;2023-03-23T09:04:48;15.65;64.36
65876;HTU21D;52657;51.128;5.938;2023-03-23T09:07:32;15.51;65.00
65876;HTU21D;52657;51.128;5.938;2023-03-23T09:09:58;15.44;65.62
65876;HTU21D;52657;51.128;5.938;2023-03-23T09:12:24;15.42;65.64
65876;HTU21D;52657;51.128;5.938;2023-03-23T09:14:50;15.32;65.76
65876;HTU21D;52657;51.128;5.938;2023-03-23T09:17:18;15.24;66.02
65876;HTU21D;52657;51.128;5.938;2023-03-23T09:19:44;15.14;66.05
65876;HTU21D;52657;51.128;5.938;2023-03-23T09:22:10;15.01;66.20
65876;HTU21D;52657;51.128;5.938;2023-03-23T09:24:36;14.93;66.65
65876;HTU21D;52657;51.128;5.938;2023-03-23T09:27:03;14.93;67.01
65876;HTU21D;52657;51.128;5.938;2023-03-23T09:29:28;14.86;67.13
65876;HTU21D;52657;51.128;5.938;2023-03-23T09:31:57;14.82;67.31
65876;HTU21D;52657;51.128;5.938;2023-03-23T09:34:23;14.83;67.31
65876;HTU21D;52657;51.128;5.938;2023-03-23T09:36:49;14.82;67.33
65876;HTU21D;52657;51.128;5.938;2023-03-23T09:39:15;14.77;67.55
65876;HTU21D;52657;51.128;5.938;2023-03-23T09:47:32;14.66;67.73
65876;HTU21D;52657;51.128;5.938;2023-03-23T09:50:16;14.56;67.84
65876;HTU21D;52657;51.128;5.938;2023-03-23T09:52:50;14.44;67.96
65876;HTU21D;52657;51.128;5.938;2023-03-23T09:55:18;14.40;68.56
65876;HTU21D;52657;51.128;5.938;2023-03-23T09:57:56;14.37;68.41
65876;HTU21D;52657;51.128;5.938;2023-03-23T10:00:30;14.36;68.58
65876;HTU21D;52657;51.128;5.938;2023-03-23T10:08:05;14.38;68.12
65876;HTU21D;52657;51.128;5.938;2023-03-23T10:10:59;14.30;68.34
65876;HTU21D;52657;51.128;5.938;2023-03-23T10:16:22;14.30;68.98
65876;HTU21D;52657;51.128;5.938;2023-03-23T10:22:16;14.38;69.14
65876;HTU21D;52657;51.128;5.938;2023-03-23T10:25:04;14.41;68.87
65876;HTU21D;52657;51.128;5.938;2023-03-23T10:30:31;14.38;69.36
65876;HTU21D;52657;51.128;5.938;2023-03-23T10:35:49;14.42;69.76
65876;HTU21D;52657;51.128;5.938;2023-03-23T10:38:26;14.37;69.84
65876;HTU21D;52657;51.128;5.938;2023-03-23T10:41:02;14.39;70.19
65876;HTU21D;52657;51.128;5.938;2023-03-23T10:43:31;14.45;70.44
65876;HTU21D;52657;51.128;5.938;2023-03-23T10:46:02;14.51;70.49
65876;HTU21D;52657;51.128;5.938;2023-03-23T10:48:36;14.55;70.42
65876;HTU21D;52657;51.128;5.938;2023-03-23T10:51:09;14.53;70.37
65876;HTU21D;52657;51.128;5.938;2023-03-23T10:53:38;14.56;70.43
65876;HTU21D;52657;51.128;5.938;2023-03-23T10:56:21;14.60;70.62
65876;HTU21D;52657;51.128;5.938;2023-03-23T10:58:48;14.64;70.55
65876;HTU21D;52657;51.128;5.938;2023-03-23T11:01:17;14.64;70.61
65876;HTU21D;52657;51.128;5.938;2023-03-23T11:03:46;14.70;70.61
65876;HTU21D;52657;51.128;5.938;2023-03-23T11:06:24;14.70;70.78
65876;HTU21D;52657;51.128;5.938;2023-03-23T11:09:01;14.69;70.88
65876;HTU21D;52657;51.128;5.938;2023-03-23T11:11:31;14.71;71.38
65876;HTU21D;52657;51.128;5.938;2023-03-23T11:14:02;14.82;71.72
65876;HTU21D;52657;51.128;5.938;2023-03-23T11:16:31;14.97;71.78
65876;HTU21D;52657;51.128;5.938;2023-03-23T11:19:00;15.06;71.57
65876;HTU21D;52657;51.128;5.938;2023-03-23T11:21:27;15.08;71.46
65876;HTU21D;52657;51.128;5.938;2023-03-23T11:23:57;15.15;71.74
65876;HTU21D;52657;51.128;5.938;2023-03-23T11:26:29;15.25;71.71
65876;HTU21D;52657;51.128;5.938;2023-03-23T11:29:12;15.30;71.35
65876;HTU21D;52657;51.128;5.938;2023-03-23T11:31:50;15.37;71.32
65876;HTU21D;52657;51.128;5.938;2023-03-23T11:34:31;15.38;71.74
65876;HTU21D;52657;51.128;5.938;2023-03-23T11:37:55;15.42;71.57
65876;HTU21D;52657;51.128;5.938;2023-03-23T11:40:24;15.42;71.67
65876;HTU21D;52657;51.128;5.938;2023-03-23T11:43:12;15.38;71.74
65876;HTU21D;52657;51.128;5.938;2023-03-23T11:45:45;15.32;71.95
65876;HTU21D;52657;51.128;5.938;2023-03-23T11:48:35;15.32;71.89
65876;HTU21D;52657;51.128;5.938;2023-03-23T11:51:15;15.30;71.82
65876;HTU21D;52657;51.128;5.938;2023-03-23T11:54:01;15.40;71.61
65876;HTU21D;52657;51.128;5.938;2023-03-23T11:56:35;15.36;71.66
65876;HTU21D;52657;51.128;5.938;2023-03-23T11:59:10;15.34;71.89
65876;HTU21D;52657;51.128;5.938;2023-03-23T12:09:53;15.25;72.16
65876;HTU21D;52657;51.128;5.938;2023-03-23T12:17:54;15.40;71.84
65876;HTU21D;52657;51.128;5.938;2023-03-23T12:21:15;15.42;71.52
65876;HTU21D;52657;51.128;5.938;2023-03-23T12:26:09;15.55;71.62
65876;HTU21D;52657;51.128;5.938;2023-03-23T12:28:58;15.65;71.43
65876;HTU21D;52657;51.128;5.938;2023-03-23T12:31:43;15.74;71.51
65876;HTU21D;52657;51.128;5.938;2023-03-23T12:37:29;15.97;70.65
65876;HTU21D;52657;51.128;5.938;2023-03-23T12:48:42;16.20;70.73
65876;HTU21D;52657;51.128;5.938;2023-03-23T12:51:26;16.36;70.88
65876;HTU21D;52657;51.128;5.938;2023-03-23T12:54:32;16.49;70.30
65876;HTU21D;52657;51.128;5.938;2023-03-23T12:57:02;16.57;69.88
65876;HTU21D;52657;51.128;5.938;2023-03-23T13:00:38;16.58;69.37
65876;HTU21D;52657;51.128;5.938;2023-03-23T13:02:52;16.60;69.61
65876;HTU21D;52657;51.128;5.938;2023-03-23T13:08:06;16.79;69.49
65876;HTU21D;52657;51.128;5.938;2023-03-23T13:10:42;16.81;68.34
65876;HTU21D;52657;51.128;5.938;2023-03-23T13:13:59;16.78;68.50
65876;HTU21D;52657;51.128;5.938;2023-03-23T13:21:31;16.80;68.70
65876;HTU21D;52657;51.128;5.938;2023-03-23T13:24:10;16.85;68.58
65876;HTU21D;52657;51.128;5.938;2023-03-23T13:26:41;16.93;68.67
65876;HTU21D;52657;51.128;5.938;2023-03-23T13:29:28;17.00;68.17
65876;HTU21D;52657;51.128;5.938;2023-03-23T13:32:10;17.16;68.33
65876;HTU21D;52657;51.128;5.938;2023-03-23T13:34:37;17.26;66.94
65876;HTU21D;52657;51.128;5.938;2023-03-23T13:39:56;17.44;65.83
65876;HTU21D;52657;51.128;5.938;2023-03-23T13:42:29;17.43;65.16
65876;HTU21D;52657;51.128;5.938;2023-03-23T13:45:23;17.40;65.02
65876;HTU21D;52657;51.128;5.938;2023-03-23T13:48:17;17.43;64.86
65876;HTU21D;52657;51.128;5.938;2023-03-23T13:50:58;17.36;64.51
65876;HTU21D;52657;51.128;5.938;2023-03-23T13:53:44;17.29;64.02
65876;HTU21D;52657;51.128;5.938;2023-03-23T13:56:19;17.19;64.25
65876;HTU21D;52657;51.128;5.938;2023-03-23T13:59:15;17.18;64.47
65876;HTU21D;52657;51.128;5.938;2023-03-23T14:01:42;17.15;64.41
65876;HTU21D;52657;51.128;5.938;2023-03-23T14:04:18;17.07;64.52
65876;HTU21D;52657;51.128;5.938;2023-03-23T14:06:51;17.02;65.12
65876;HTU21D;52657;51.128;5.938;2023-03-23T14:09:36;16.96;65.74
65876;HTU21D;52657;51.128;5.938;2023-03-23T14:12:19;16.89;66.65
65876;HTU21D;52657;51.128;5.938;2023-03-23T14:14:50;16.82;67.37
65876;HTU21D;52657;51.128;5.938;2023-03-23T14:17:19;16.74;67.96
65876;HTU21D;52657;51.128;5.938;2023-03-23T14:19:52;16.72;68.11
65876;HTU21D;52657;51.128;5.938;2023-03-23T14:22:28;16.63;68.04
65876;HTU21D;52657;51.128;5.938;2023-03-23T14:25:09;16.57;68.46
65876;HTU21D;52657;51.128;5.938;2023-03-23T14:27:36;16.54;68.58
65876;HTU21D;52657;51.128;5.938;2023-03-23T14:30:07;16.54;69.07
65876;HTU21D;52657;51.128;5.938;2023-03-23T14:32:34;16.58;69.55
65876;HTU21D;52657;51.128;5.938;2023-03-23T14:35:08;16.65;69.71
65876;HTU21D;52657;51.128;5.938;2023-03-23T14:37:35;16.69;69.52
65876;HTU21D;52657;51.128;5.938;2023-03-23T14:40:02;16.74;69.49
65876;HTU21D;52657;51.128;5.938;2023-03-23T14:42:37;16.75;68.92
65876;HTU21D;52657;51.128;5.938;2023-03-23T14:45:05;16.76;68.49
65876;HTU21D;52657;51.128;5.938;2023-03-23T14:47:43;16.86;68.65
65876;HTU21D;52657;51.128;5.938;2023-03-23T14:50:29;16.93;67.99
65876;HTU21D;52657;51.128;5.938;2023-03-23T14:53:17;17.03;67.84
65876;HTU21D;52657;51.128;5.938;2023-03-23T14:55:47;17.13;67.38
65876;HTU21D;52657;51.128;5.938;2023-03-23T14:58:16;17.18;66.40
65876;HTU21D;52657;51.128;5.938;2023-03-23T15:03:18;17.21;66.04
65876;HTU21D;52657;51.128;5.938;2023-03-23T15:05:50;17.25;65.39
65876;HTU21D;52657;51.128;5.938;2023-03-23T15:08:25;17.34;65.89
65876;HTU21D;52657;51.128;5.938;2023-03-23T15:11:08;17.48;65.62
65876;HTU21D;52657;51.128;5.938;2023-03-23T15:13:36;17.55;65.57
65876;HTU21D;52657;51.128;5.938;2023-03-23T15:16:11;17.55;64.84
65876;HTU21D;52657;51.128;5.938;2023-03-23T15:18:40;17.56;64.39
65876;HTU21D;52657;51.128;5.938;2023-03-23T15:21:18;17.49;64.23
65876;HTU21D;52657;51.128;5.938;2023-03-23T15:23:45;17.49;63.69
65876;HTU21D;52657;51.128;5.938;2023-03-23T15:26:41;17.52;63.99
65876;HTU21D;52657;51.128;5.938;2023-03-23T15:31:43;17.56;62.85
65876;HTU21D;52657;51.128;5.938;2023-03-23T15:34:17;17.50;61.83
65876;HTU21D;52657;51.128;5.938;2023-03-23T15:36:44;17.47;62.08
65876;HTU21D;52657;51.128;5.938;2023-03-23T15:39:12;17.45;62.22
65876;HTU21D;52657;51.128;5.938;2023-03-23T15:41:47;17.45;62.12
65876;HTU21D;52657;51.128;5.938;2023-03-23T15:44:32;17.50;61.78
65876;HTU21D;52657;51.128;5.938;2023-03-23T15:47:18;17.58;61.80
65876;HTU21D;52657;51.128;5.938;2023-03-23T15:49:45;17.67;61.70
65876;HTU21D;52657;51.128;5.938;2023-03-23T15:52:13;17.75;61.25
65876;HTU21D;52657;51.128;5.938;2023-03-23T15:54:46;17.79;60.83
65876;HTU21D;52657;51.128;5.938;2023-03-23T15:57:12;17.79;60.67
65876;HTU21D;52657;51.128;5.938;2023-03-23T15:59:37;17.80;60.46
65876;HTU21D;52657;51.128;5.938;2023-03-23T16:02:03;17.81;60.24
65876;HTU21D;52657;51.128;5.938;2023-03-23T16:04:29;17.84;60.43
65876;HTU21D;52657;51.128;5.938;2023-03-23T16:06:56;17.87;60.27
65876;HTU21D;52657;51.128;5.938;2023-03-23T16:09:23;17.88;59.63
65876;HTU21D;52657;51.128;5.938;2023-03-23T16:11:49;17.82;59.46
65876;HTU21D;52657;51.128;5.938;2023-03-23T16:14:15;17.82;59.32
65876;HTU21D;52657;51.128;5.938;2023-03-23T16:16:44;17.76;58.77
65876;HTU21D;52657;51.128;5.938;2023-03-23T16:19:12;17.69;58.46
65876;HTU21D;52657;51.128;5.938;2023-03-23T16:21:39;17.64;58.30
65876;HTU21D;52657;51.128;5.938;2023-03-23T16:24:05;17.58;58.35
65876;HTU21D;52657;51.128;5.938;2023-03-23T16:26:32;17.54;57.67
65876;HTU21D;52657;51.128;5.938;2023-03-23T16:28:58;17.49;57.76
65876;HTU21D;52657;51.128;5.938;2023-03-23T16:31:28;17.49;57.59
65876;HTU21D;52657;51.128;5.938;2023-03-23T16:33:54;17.51;57.13
65876;HTU21D;52657;51.128;5.938;2023-03-23T16:36:20;17.46;57.43
65876;HTU21D;52657;51.128;5.938;2023-03-23T16:38:46;17.47;57.14
65876;HTU21D;52657;51.128;5.938;2023-03-23T16:41:11;17.51;57.49
65876;HTU21D;52657;51.128;5.938;2023-03-23T16:43:37;17.58;57.64
65876;HTU21D;52657;51.128;5.938;2023-03-23T16:46:03;17.62;57.38
65876;HTU21D;52657;51.128;5.938;2023-03-23T16:48:29;17.65;57.33
65876;HTU21D;52657;51.128;5.938;2023-03-23T16:50:55;17.66;57.02
65876;HTU21D;52657;51.128;5.938;2023-03-23T16:53:22;17.67;57.13
65876;HTU21D;52657;51.128;5.938;2023-03-23T16:55:52;17.68;57.26
65876;HTU21D;52657;51.128;5.938;2023-03-23T16:58:18;17.66;56.87
65876;HTU21D;52657;51.128;5.938;2023-03-23T17:00:47;17.65;56.67
65876;HTU21D;52657;51.128;5.938;2023-03-23T17:03:13;17.60;56.53
65876;HTU21D;52657;51.128;5.938;2023-03-23T17:05:40;17.59;56.32
65876;HTU21D;52657;51.128;5.938;2023-03-23T17:08:07;17.55;56.46
65876;HTU21D;52657;51.128;5.938;2023-03-23T17:10:33;17.55;56.39
65876;HTU21D;52657;51.128;5.938;2023-03-23T17:12:58;17.56;56.16
65876;HTU21D;52657;51.128;5.938;2023-03-23T17:15:24;17.58;56.45